Time;durP1;ratioP1;P1;durP2;ratioP2;P2;SDS_P1;SDS_P2;PMS_P1;PMS_P2;Temp;Humidity;BMP_temperature;BMP_pressure;BME280_temperature;BME280_humidity;BME280_pressure;Samples;Min_cycle;Max_cycle;Signal;HPM_P1;HPM_P2
2021/03/09 00:01:20;;;;;;;28.92;15.93;;;23.20;25.60;;;;;;6235458;28;83471;-68
2021/03/09 00:04:20;;;;;;;29.58;16.52;;;23.20;25.80;;;;;;6235091;27;84350;-67
2021/03/09 00:07:21;;;;;;;33.75;15.70;;;23.20;25.50;;;;;;6244348;28;84119;-67
2021/03/09 00:10:21;;;;;;;29.88;16.20;;;23.20;25.40;;;;;;6219967;28;85737;-68
2021/03/09 00:13:22;;;;;;;28.23;15.15;;;23.10;25.50;;;;;;6229404;27;85932;-66
2021/03/09 00:16:22;;;;;;;29.02;16.15;;;23.10;25.40;;;;;;6247505;28;85913;-67
2021/03/09 00:19:23;;;;;;;30.33;16.70;;;23.10;25.50;;;;;;6243180;28;83301;-67
2021/03/09 00:22:23;;;;;;;29.15;15.65;;;23.10;25.40;;;;;;6235600;28;83116;-67
2021/03/09 00:25:24;;;;;;;35.55;17.65;;;23.10;25.40;;;;;;6228678;28;83046;-67
2021/03/09 00:28:24;;;;;;;31.13;17.95;;;23.10;25.40;;;;;;6245334;28;83154;-68
2021/03/09 00:31:25;;;;;;;28.70;16.58;;;23.10;25.30;;;;;;6247498;28;84219;-67
2021/03/09 00:34:26;;;;;;;29.67;16.67;;;23.10;25.40;;;;;;6244181;28;83366;-67
2021/03/09 00:37:26;;;;;;;33.45;18.25;;;23.10;25.30;;;;;;6241643;28;83468;-67
2021/03/09 00:40:27;;;;;;;32.55;17.63;;;23.10;25.20;;;;;;6238541;27;82927;-65
2021/03/09 00:43:27;;;;;;;34.60;17.48;;;23.10;25.20;;;;;;6232620;28;83540;-65
2021/03/09 00:46:28;;;;;;;31.23;18.05;;;23.10;25.20;;;;;;6227055;28;84414;-65
2021/03/09 00:49:28;;;;;;;36.03;18.05;;;23.10;25.20;;;;;;6241336;28;83588;-64
2021/03/09 00:52:29;;;;;;;31.60;17.85;;;23.10;25.30;;;;;;6243468;28;82770;-64
2021/03/09 00:55:29;;;;;;;31.23;17.92;;;23.10;25.20;;;;;;6224874;28;84505;-65
2021/03/09 00:58:30;;;;;;;34.65;18.23;;;23.10;25.20;;;;;;6237350;28;83527;-64
2021/03/09 01:01:31;;;;;;;33.88;17.83;;;23.00;25.20;;;;;;6246408;28;83154;-64
2021/03/09 01:04:31;;;;;;;30.45;17.58;;;23.00;25.40;;;;;;6241538;27;84240;-64
2021/03/09 01:07:32;;;;;;;32.72;16.85;;;23.00;25.30;;;;;;6238617;28;83830;-65
2021/03/09 01:10:32;;;;;;;31.90;17.90;;;23.00;25.20;;;;;;6231538;28;83302;-65
2021/03/09 01:13:33;;;;;;;33.15;17.70;;;23.00;25.20;;;;;;6228912;28;86002;-65
2021/03/09 01:16:33;;;;;;;31.48;17.67;;;23.00;25.20;;;;;;6241208;28;83512;-65
2021/03/09 01:19:34;;;;;;;35.63;18.38;;;23.00;25.30;;;;;;6235921;28;83024;-65
2021/03/09 01:22:34;;;;;;;28.25;16.15;;;23.00;25.20;;;;;;6239352;28;83596;-65
2021/03/09 01:25:35;;;;;;;34.05;17.95;;;23.00;25.30;;;;;;6223667;28;83497;-67
2021/03/09 01:28:35;;;;;;;31.45;17.88;;;23.00;25.30;;;;;;6241479;28;83656;-66
2021/03/09 01:31:36;;;;;;;33.72;18.02;;;23.00;25.20;;;;;;6231651;28;93934;-66
2021/03/09 01:34:36;;;;;;;37.47;18.58;;;23.00;25.20;;;;;;6223449;27;83573;-66
2021/03/09 01:37:37;;;;;;;36.95;19.30;;;23.00;25.10;;;;;;6232440;28;82935;-65
2021/03/09 01:40:38;;;;;;;35.28;18.95;;;23.00;25.10;;;;;;6240891;28;84585;-66
2021/03/09 01:43:38;;;;;;;33.83;18.25;;;23.00;25.20;;;;;;6235923;28;83539;-65
2021/03/09 01:46:39;;;;;;;31.60;18.08;;;23.00;25.10;;;;;;6227885;28;84306;-65
2021/03/09 01:49:39;;;;;;;31.55;17.80;;;23.00;25.20;;;;;;6235642;27;83460;-66
2021/03/09 01:52:40;;;;;;;32.20;18.13;;;23.00;25.30;;;;;;6241412;28;83411;-66
2021/03/09 01:55:40;;;;;;;36.53;18.13;;;23.00;25.20;;;;;;6212961;28;84572;-66
2021/03/09 01:58:42;;;;;;;33.70;17.70;;;23.00;25.20;;;;;;6226059;28;85739;-67
2021/03/09 02:01:43;;;;;;;34.08;17.80;;;22.90;25.20;;;;;;6222765;28;84065;-67
2021/03/09 02:04:43;;;;;;;38.65;19.20;;;22.90;25.10;;;;;;6238008;28;84081;-67
2021/03/09 02:07:44;;;;;;;32.15;17.83;;;22.90;25.10;;;;;;6239691;28;84178;-67
2021/03/09 02:10:44;;;;;;;35.53;18.35;;;22.90;25.00;;;;;;6234425;28;86349;-67
2021/03/09 02:13:45;;;;;;;31.20;18.08;;;22.90;25.10;;;;;;6226731;28;83628;-67
2021/03/09 02:16:45;;;;;;;31.80;18.42;;;22.90;25.10;;;;;;6235661;28;83490;-68
2021/03/09 02:19:46;;;;;;;35.58;19.35;;;22.90;25.00;;;;;;6233763;28;84253;-67
2021/03/09 02:22:46;;;;;;;34.15;16.90;;;22.90;25.00;;;;;;6245210;28;83679;-68
2021/03/09 02:25:47;;;;;;;36.13;18.02;;;22.90;25.10;;;;;;6224784;28;84087;-66
2021/03/09 02:28:47;;;;;;;32.97;17.27;;;22.90;25.10;;;;;;6238594;28;83720;-67
2021/03/09 02:31:48;;;;;;;38.05;18.17;;;22.90;25.10;;;;;;6232630;28;83965;-66
2021/03/09 02:34:48;;;;;;;32.83;17.40;;;22.80;25.00;;;;;;6237381;27;82979;-67
2021/03/09 02:37:49;;;;;;;36.15;18.25;;;22.90;25.00;;;;;;6231773;28;82896;-67
2021/03/09 02:40:49;;;;;;;35.72;18.45;;;22.90;25.00;;;;;;6243246;28;83116;-64
2021/03/09 02:43:50;;;;;;;33.72;18.27;;;22.80;24.90;;;;;;6233750;28;83049;-65
2021/03/09 02:46:51;;;;;;;35.38;18.73;;;22.90;24.90;;;;;;6239280;28;84603;-66
2021/03/09 02:49:52;;;;;;;30.98;18.13;;;22.90;24.90;;;;;;6239440;27;83377;-66
2021/03/09 02:52:53;;;;;;;31.80;18.70;;;22.90;25.00;;;;;;6242074;28;84410;-66
2021/03/09 02:55:53;;;;;;;34.22;18.33;;;22.80;25.00;;;;;;6234535;28;83196;-65
2021/03/09 02:58:54;;;;;;;35.53;17.70;;;22.80;25.00;;;;;;6239095;28;83294;-66
2021/03/09 03:01:54;;;;;;;30.52;17.02;;;22.80;25.00;;;;;;6235959;28;85467;-65
2021/03/09 03:04:55;;;;;;;32.85;18.63;;;22.80;25.00;;;;;;6241199;28;83508;-66
2021/03/09 03:07:55;;;;;;;32.47;17.88;;;22.90;25.10;;;;;;6212547;28;83004;-66
2021/03/09 03:10:56;;;;;;;32.65;17.95;;;22.90;25.00;;;;;;6245675;28;83154;-65
2021/03/09 03:13:56;;;;;;;38.33;18.90;;;22.80;25.10;;;;;;6244157;28;83560;-66
2021/03/09 03:16:57;;;;;;;34.63;18.05;;;22.80;25.10;;;;;;6235663;27;83742;-66
2021/03/09 03:19:57;;;;;;;33.78;17.50;;;22.80;25.20;;;;;;6242178;28;83520;-66
2021/03/09 03:22:58;;;;;;;34.05;18.73;;;22.80;25.10;;;;;;6233034;27;83366;-66
2021/03/09 03:25:59;;;;;;;34.05;18.23;;;22.80;25.10;;;;;;6248060;28;83546;-65
2021/03/09 03:28:59;;;;;;;32.47;18.20;;;22.80;25.10;;;;;;6230559;28;83540;-66
2021/03/09 03:32:00;;;;;;;35.58;19.35;;;22.90;25.10;;;;;;6226971;28;84251;-66
2021/03/09 03:35:00;;;;;;;34.25;18.98;;;22.80;25.10;;;;;;6221582;28;83446;-67
2021/03/09 03:38:01;;;;;;;34.17;19.15;;;22.80;25.10;;;;;;6236037;28;85904;-67
2021/03/09 03:41:01;;;;;;;33.47;17.63;;;22.80;25.10;;;;;;6238255;27;83856;-67
2021/03/09 03:44:02;;;;;;;34.10;17.83;;;22.80;25.10;;;;;;6240687;28;84056;-66
2021/03/09 03:47:02;;;;;;;36.45;18.83;;;22.80;25.10;;;;;;6247912;28;84217;-67
2021/03/09 03:50:03;;;;;;;33.80;18.33;;;22.80;25.10;;;;;;6244357;27;83593;-67
2021/03/09 03:53:03;;;;;;;33.13;17.92;;;22.80;25.10;;;;;;6219096;28;84342;-67
2021/03/09 03:56:04;;;;;;;34.88;18.67;;;22.80;25.10;;;;;;6245299;27;83244;-67
2021/03/09 03:59:05;;;;;;;35.55;17.90;;;22.80;25.00;;;;;;6230433;28;83873;-65
2021/03/09 04:02:05;;;;;;;32.92;17.65;;;22.80;25.10;;;;;;6242016;28;83318;-67
2021/03/09 04:05:06;;;;;;;34.42;18.70;;;22.80;25.00;;;;;;6234013;28;83964;-67
2021/03/09 04:08:06;;;;;;;36.10;19.80;;;22.80;25.10;;;;;;6239724;27;83612;-66
2021/03/09 04:11:07;;;;;;;29.50;18.05;;;22.70;25.10;;;;;;6234500;28;83255;-66
2021/03/09 04:14:07;;;;;;;35.38;17.95;;;22.70;25.50;;;;;;6232953;28;83212;-66
2021/03/09 04:17:08;;;;;;;36.20;18.52;;;22.80;25.30;;;;;;6237027;28;83241;-66
2021/03/09 04:20:08;;;;;;;31.33;17.70;;;22.80;25.30;;;;;;6208014;28;86139;-66
2021/03/09 04:23:09;;;;;;;31.55;17.55;;;22.80;25.20;;;;;;6238522;28;84064;-65
2021/03/09 04:26:10;;;;;;;30.48;16.52;;;22.90;25.10;;;;;;6217061;28;84044;-65
2021/03/09 04:29:10;;;;;;;30.95;17.13;;;22.90;24.90;;;;;;6226925;28;83422;-65
2021/03/09 04:32:11;;;;;;;37.45;18.73;;;22.90;24.90;;;;;;6229718;28;83610;-65
2021/03/09 04:35:11;;;;;;;28.45;15.90;;;22.90;25.00;;;;;;6232535;27;83297;-65
2021/03/09 04:38:12;;;;;;;31.63;17.80;;;22.90;24.90;;;;;;6234252;27;87805;-65
2021/03/09 04:41:12;;;;;;;32.72;16.92;;;22.90;24.70;;;;;;6226165;28;84419;-64
2021/03/09 04:44:13;;;;;;;28.40;16.05;;;23.00;25.00;;;;;;6240484;27;83128;-66
2021/03/09 04:47:13;;;;;;;29.40;17.25;;;23.00;24.80;;;;;;6237969;28;82968;-66
2021/03/09 04:50:14;;;;;;;31.02;16.65;;;23.10;24.70;;;;;;6233055;28;83568;-66
2021/03/09 04:53:15;;;;;;;30.00;15.93;;;23.10;24.60;;;;;;6245460;28;84045;-68
2021/03/09 04:56:15;;;;;;;34.20;16.48;;;23.20;24.60;;;;;;6238640;28;84012;-67
2021/03/09 04:59:16;;;;;;;29.40;16.65;;;23.20;24.60;;;;;;6238996;28;83763;-68
2021/03/09 05:02:16;;;;;;;29.08;16.73;;;23.20;24.50;;;;;;6215144;28;83665;-68
2021/03/09 05:05:17;;;;;;;31.80;17.00;;;23.20;24.50;;;;;;6195726;27;85134;-68
2021/03/09 05:08:17;;;;;;;32.75;17.25;;;23.20;24.50;;;;;;6232374;28;85899;-68
2021/03/09 05:11:18;;;;;;;28.17;16.35;;;23.20;24.50;;;;;;6238185;28;83257;-69
2021/03/09 05:14:18;;;;;;;33.47;16.13;;;23.30;24.50;;;;;;6240642;28;83362;-68
2021/03/09 05:17:19;;;;;;;27.85;15.27;;;23.30;24.50;;;;;;6234023;28;84630;-69
2021/03/09 05:20:20;;;;;;;28.77;15.75;;;23.30;24.40;;;;;;6216234;28;82924;-67
2021/03/09 05:23:20;;;;;;;29.33;16.48;;;23.40;24.40;;;;;;6240830;28;83262;-67
2021/03/09 05:26:21;;;;;;;31.00;16.48;;;23.30;24.30;;;;;;6213792;28;84330;-67
2021/03/09 05:29:21;;;;;;;29.30;16.75;;;23.30;24.30;;;;;;6229110;28;83401;-65
2021/03/09 05:32:22;;;;;;;28.60;16.70;;;23.40;24.30;;;;;;6203233;28;83150;-64
2021/03/09 05:35:22;;;;;;;32.17;16.90;;;23.40;24.20;;;;;;6234417;27;83529;-70
2021/03/09 05:38:23;;;;;;;31.80;18.08;;;23.40;24.20;;;;;;6236324;28;84095;-68
2021/03/09 05:41:23;;;;;;;26.13;14.65;;;23.40;24.80;;;;;;6218252;28;83932;-67
2021/03/09 05:44:24;;;;;;;28.25;16.65;;;23.40;26.30;;;;;;6238493;28;83528;-67
2021/03/09 05:47:25;;;;;;;23.50;13.75;;;23.30;26.50;;;;;;6239746;28;84174;-68
2021/03/09 05:50:25;;;;;;;21.90;12.30;;;23.10;28.20;;;;;;6235873;28;83495;-69
2021/03/09 05:53:26;;;;;;;22.73;11.38;;;23.10;28.80;;;;;;6236670;28;83567;-67
2021/03/09 05:56:26;;;;;;;19.30;10.20;;;23.10;29.30;;;;;;6222166;28;84226;-67
2021/03/09 05:59:27;;;;;;;17.85;9.23;;;23.10;29.60;;;;;;6243320;27;83408;-68
2021/03/09 06:02:27;;;;;;;15.52;8.77;;;23.20;30.20;;;;;;6245975;27;81830;-66
2021/03/09 06:05:28;;;;;;;14.63;8.88;;;23.10;30.40;;;;;;6237522;28;80385;-68
2021/03/09 06:08:28;;;;;;;16.38;8.23;;;23.00;31.10;;;;;;6226734;28;80790;-67
2021/03/09 06:11:32;;;;;;;16.85;8.95;;;23.00;31.70;;;;;;6234254;28;80300;-65
2021/03/09 06:14:33;;;;;;;13.85;7.95;;;23.00;32.40;;;;;;6239405;28;81329;-69
2021/03/09 06:17:35;;;;;;;13.15;8.10;;;23.10;32.70;;;;;;6233399;28;80765;-68
2021/03/09 06:20:36;;;;;;;16.17;8.05;;;23.10;33.20;;;;;;6233948;28;80713;-68
2021/03/09 06:23:36;;;;;;;15.02;7.70;;;23.20;32.80;;;;;;6238410;28;80525;-67
2021/03/09 06:26:37;;;;;;;13.45;7.25;;;23.20;33.50;;;;;;6193045;27;85317;-67
2021/03/09 06:29:37;;;;;;;13.15;7.50;;;23.20;34.50;;;;;;6240714;28;81258;-68
2021/03/09 06:32:38;;;;;;;13.85;7.88;;;23.20;34.20;;;;;;6209990;28;80445;-67
2021/03/09 06:35:38;;;;;;;11.75;6.38;;;23.20;34.80;;;;;;6239193;28;81587;-68
2021/03/09 06:38:39;;;;;;;12.98;7.07;;;23.20;34.90;;;;;;6241374;28;81899;-69
2021/03/09 06:41:39;;;;;;;12.40;7.35;;;23.20;34.90;;;;;;6232606;28;80376;-68
2021/03/09 06:44:40;;;;;;;14.23;7.00;;;23.20;34.70;;;;;;6233852;28;80775;-68
2021/03/09 06:47:41;;;;;;;16.70;6.95;;;23.30;34.50;;;;;;6212814;28;81062;-66
2021/03/09 06:50:41;;;;;;;14.70;7.63;;;23.20;34.40;;;;;;6229139;28;83645;-66
2021/03/09 06:53:42;;;;;;;12.48;7.25;;;23.30;34.20;;;;;;6244902;27;84868;-66
2021/03/09 06:56:42;;;;;;;14.27;7.50;;;23.30;34.50;;;;;;6242295;27;80582;-67
2021/03/09 06:59:43;;;;;;;15.00;7.20;;;23.30;34.90;;;;;;6238731;28;83307;-67
2021/03/09 07:02:43;;;;;;;13.98;7.10;;;23.30;34.00;;;;;;6234473;27;81981;-67
2021/03/09 07:05:44;;;;;;;13.50;7.20;;;23.30;34.80;;;;;;6248711;28;80727;-68
2021/03/09 07:08:44;;;;;;;13.25;7.60;;;23.30;34.60;;;;;;6238093;28;81810;-67
2021/03/09 07:11:45;;;;;;;12.23;7.13;;;23.30;35.70;;;;;;6253462;28;80512;-68
2021/03/09 07:14:46;;;;;;;14.93;7.05;;;23.20;35.10;;;;;;6241312;28;80957;-67
2021/03/09 07:17:47;;;;;;;13.48;7.40;;;23.20;35.30;;;;;;6238460;28;80719;-68
2021/03/09 07:20:47;;;;;;;12.25;6.85;;;23.20;35.70;;;;;;6242253;27;81244;-68
2021/03/09 07:23:48;;;;;;;16.85;7.70;;;23.20;35.50;;;;;;6244156;28;80793;-67
2021/03/09 07:26:48;;;;;;;14.07;8.15;;;23.20;35.60;;;;;;6242878;28;80981;-67
2021/03/09 07:29:49;;;;;;;14.32;8.02;;;23.20;34.70;;;;;;6248744;28;80473;-69
2021/03/09 07:32:50;;;;;;;14.73;8.23;;;23.20;36.00;;;;;;6251253;28;81015;-67
2021/03/09 07:35:50;;;;;;;18.35;8.70;;;23.10;35.20;;;;;;6246426;28;82189;-66
2021/03/09 07:38:51;;;;;;;16.30;9.13;;;23.20;35.10;;;;;;6243278;28;80652;-68
2021/03/09 07:41:51;;;;;;;13.68;8.43;;;23.20;35.50;;;;;;6246321;28;80744;-68
2021/03/09 07:44:52;;;;;;;23.23;9.35;;;23.10;35.40;;;;;;6247389;28;80443;-68
2021/03/09 07:47:52;;;;;;;18.75;10.35;;;23.10;34.90;;;;;;6230228;28;80679;-68
2021/03/09 07:50:53;;;;;;;18.10;9.95;;;23.10;34.80;;;;;;6246690;28;82984;-68
2021/03/09 07:53:53;;;;;;;19.48;9.45;;;23.00;35.00;;;;;;6246219;28;83087;-68
2021/03/09 07:56:54;;;;;;;17.92;9.63;;;23.10;35.00;;;;;;6246626;28;80468;-67
2021/03/09 07:59:55;;;;;;;18.65;9.77;;;23.10;35.10;;;;;;6249346;27;80765;-69
2021/03/09 08:02:58;;;;;;;17.45;10.68;;;23.10;35.20;;;;;;6244279;28;80726;-71
2021/03/09 08:05:58;;;;;;;23.25;11.40;;;23.10;36.30;;;;;;6199482;28;83470;-69
2021/03/09 08:08:59;;;;;;;19.45;10.85;;;23.10;36.00;;;;;;6242215;28;83149;-69
2021/03/09 08:11:59;;;;;;;22.15;11.55;;;23.10;35.70;;;;;;6213313;28;84061;-68
2021/03/09 08:15:00;;;;;;;24.50;12.98;;;23.10;36.20;;;;;;6236233;28;83160;-68
2021/03/09 08:18:00;;;;;;;23.15;12.02;;;23.10;36.70;;;;;;6233417;28;83536;-69
2021/03/09 08:21:01;;;;;;;23.42;11.65;;;23.10;37.10;;;;;;6232190;28;84326;-68
2021/03/09 08:24:01;;;;;;;20.70;12.25;;;23.10;37.70;;;;;;6232856;28;85410;-68
2021/03/09 08:27:02;;;;;;;26.73;11.30;;;23.20;38.80;;;;;;6240001;28;83400;-69
2021/03/09 08:30:03;;;;;;;25.15;12.40;;;23.20;38.30;;;;;;6234501;27;88383;-69
2021/03/09 08:33:03;;;;;;;28.40;12.55;;;23.20;38.40;;;;;;6236424;28;83496;-69
2021/03/09 08:36:04;;;;;;;25.85;10.85;;;23.30;38.20;;;;;;6235648;28;84372;-68
2021/03/09 08:39:05;;;;;;;26.65;11.20;;;23.30;38.90;;;;;;6237200;28;84134;-67
2021/03/09 08:42:05;;;;;;;21.13;11.95;;;23.40;39.30;;;;;;6241441;28;84336;-66
2021/03/09 08:45:06;;;;;;;23.33;12.05;;;23.50;38.90;;;;;;6238293;28;83870;-67
2021/03/09 08:48:07;;;;;;;18.80;10.20;;;23.50;37.90;;;;;;6241859;28;83303;-67
2021/03/09 08:51:07;;;;;;;24.38;10.52;;;23.50;36.90;;;;;;6226561;27;84351;-68
2021/03/09 08:54:08;;;;;;;18.20;10.20;;;23.50;36.60;;;;;;6237231;28;85010;-67
2021/03/09 08:57:08;;;;;;;20.45;10.30;;;23.60;36.40;;;;;;6245849;28;83461;-67
2021/03/09 09:00:09;;;;;;;18.70;10.18;;;23.60;36.00;;;;;;6244326;27;83527;-68
2021/03/09 09:03:09;;;;;;;17.52;9.43;;;23.70;35.80;;;;;;6243543;27;83200;-67
2021/03/09 09:06:10;;;;;;;19.58;10.65;;;23.80;35.20;;;;;;6244966;27;84048;-67
2021/03/09 09:09:11;;;;;;;19.02;10.05;;;23.90;34.60;;;;;;6240438;27;83369;-68
2021/03/09 09:12:12;;;;;;;22.65;10.18;;;23.90;34.20;;;;;;6241034;27;83305;-69
2021/03/09 09:15:12;;;;;;;16.65;9.65;;;24.00;33.80;;;;;;6240482;27;83423;-69
2021/03/09 09:18:13;;;;;;;19.73;9.57;;;24.00;33.70;;;;;;6243306;28;82972;-68
2021/03/09 09:21:13;;;;;;;16.40;9.43;;;24.00;33.70;;;;;;6242356;27;81368;-68
2021/03/09 09:24:14;;;;;;;22.25;9.45;;;24.10;33.50;;;;;;6241128;27;80772;-67
2021/03/09 09:27:14;;;;;;;19.92;9.85;;;24.10;33.50;;;;;;6242149;27;81185;-67
2021/03/09 09:30:15;;;;;;;20.77;10.57;;;24.10;33.20;;;;;;6242257;27;81153;-68
2021/03/09 09:33:15;;;;;;;20.85;9.50;;;24.10;32.90;;;;;;6234318;28;83231;-68
2021/03/09 09:36:16;;;;;;;17.60;9.10;;;24.10;32.30;;;;;;6248372;27;82924;-68
2021/03/09 09:39:16;;;;;;;16.45;8.77;;;24.10;32.20;;;;;;6246570;27;81667;-68
2021/03/09 09:42:17;;;;;;;18.83;9.73;;;24.10;31.90;;;;;;6248114;27;80752;-69
2021/03/09 09:45:18;;;;;;;14.32;8.48;;;24.10;31.70;;;;;;6217339;28;80716;-67
2021/03/09 09:48:18;;;;;;;16.70;8.18;;;24.10;31.80;;;;;;6246093;28;80716;-67
2021/03/09 09:51:19;;;;;;;14.32;7.07;;;24.00;31.70;;;;;;6236552;28;80961;-68
2021/03/09 09:54:19;;;;;;;18.23;8.15;;;24.10;31.40;;;;;;6247103;28;80535;-68
2021/03/09 09:57:20;;;;;;;12.02;7.72;;;24.10;31.30;;;;;;6227118;28;81625;-67
2021/03/09 10:00:20;;;;;;;16.38;8.75;;;24.00;30.90;;;;;;6235629;28;80800;-67
2021/03/09 10:03:21;;;;;;;17.83;8.13;;;24.10;30.40;;;;;;6234157;28;80450;-71
2021/03/09 10:06:21;;;;;;;16.05;8.18;;;24.00;30.10;;;;;;6238308;28;83096;-67
2021/03/09 10:09:23;;;;;;;16.00;8.10;;;24.00;29.90;;;;;;6247759;28;80411;-67
2021/03/09 10:12:23;;;;;;;14.57;7.63;;;24.00;29.80;;;;;;6242860;28;80470;-67
2021/03/09 10:15:24;;;;;;;13.23;7.88;;;24.00;30.00;;;;;;6216668;28;81782;-67
2021/03/09 10:18:24;;;;;;;15.05;7.90;;;23.90;29.70;;;;;;6241610;28;80897;-66
2021/03/09 10:21:25;;;;;;;14.13;7.43;;;24.00;29.60;;;;;;6244053;28;80570;-67
2021/03/09 10:24:30;;;;;;;15.98;7.68;;;23.90;29.40;;;;;;6222069;28;82945;-66
2021/03/09 10:27:31;;;;;;;13.15;6.78;;;23.90;29.10;;;;;;6236028;28;81805;-67
2021/03/09 10:30:31;;;;;;;12.48;6.63;;;23.90;29.30;;;;;;6236696;28;89914;-68
2021/03/09 10:33:32;;;;;;;12.68;6.90;;;23.90;29.10;;;;;;6243437;28;81076;-68
2021/03/09 10:36:32;;;;;;;12.23;6.55;;;23.90;29.60;;;;;;6238451;28;81113;-67
2021/03/09 10:39:33;;;;;;;15.93;7.43;;;23.80;30.20;;;;;;6244930;27;80869;-66
2021/03/09 10:42:35;;;;;;;10.73;5.90;;;23.80;29.70;;;;;;6242250;27;81907;-67
2021/03/09 10:45:37;;;;;;;14.95;6.68;;;23.70;29.80;;;;;;6235770;28;80687;-67
2021/03/09 10:48:37;;;;;;;10.60;5.75;;;23.80;30.00;;;;;;6240977;28;81153;-68
2021/03/09 10:51:38;;;;;;;13.65;6.00;;;23.80;29.70;;;;;;6247232;28;80546;-66
2021/03/09 10:54:38;;;;;;;11.18;5.90;;;23.80;30.00;;;;;;6251504;28;82029;-67
2021/03/09 10:57:39;;;;;;;12.40;5.18;;;23.80;29.90;;;;;;6222956;28;80735;-67
2021/03/09 11:00:40;;;;;;;10.65;5.95;;;23.80;31.90;;;;;;6240018;28;81957;-68
2021/03/09 11:03:40;;;;;;;15.95;5.40;;;23.90;31.60;;;;;;6237737;28;80968;-65
2021/03/09 11:06:41;;;;;;;10.20;5.68;;;23.90;31.70;;;;;;6239692;28;82340;-66
2021/03/09 11:09:42;;;;;;;10.57;5.25;;;23.90;31.40;;;;;;6243270;27;81909;-69
2021/03/09 11:12:43;;;;;;;10.57;5.45;;;23.90;31.10;;;;;;6247364;27;83082;-68
2021/03/09 11:15:43;;;;;;;8.88;4.88;;;23.90;31.30;;;;;;6247374;28;80714;-68
2021/03/09 11:18:44;;;;;;;9.35;5.45;;;23.90;31.50;;;;;;6242381;28;80924;-67
2021/03/09 11:21:44;;;;;;;12.75;5.13;;;23.90;31.90;;;;;;6245577;28;80833;-67
2021/03/09 11:24:45;;;;;;;9.13;4.63;;;23.90;31.00;;;;;;6194772;28;81680;-70
2021/03/09 11:27:45;;;;;;;8.65;5.38;;;23.80;31.00;;;;;;6247229;28;80891;-68
2021/03/09 11:30:46;;;;;;;11.23;5.40;;;23.90;31.70;;;;;;6233002;28;81807;-70
2021/03/09 11:33:46;;;;;;;8.55;5.10;;;23.90;31.10;;;;;;6227132;28;80548;-68
2021/03/09 11:36:47;;;;;;;9.65;5.55;;;23.90;32.20;;;;;;6236763;28;80777;-67
2021/03/09 11:39:48;;;;;;;11.15;5.43;;;23.90;32.30;;;;;;6236048;28;80662;-70
2021/03/09 11:42:48;;;;;;;11.05;5.32;;;23.90;32.50;;;;;;6239613;27;80877;-70
2021/03/09 11:45:49;;;;;;;10.52;5.15;;;24.00;33.50;;;;;;6246087;27;81740;-68
2021/03/09 11:48:49;;;;;;;11.55;5.82;;;24.00;31.40;;;;;;6244886;28;80620;-69
2021/03/09 11:51:50;;;;;;;17.48;5.60;;;24.00;33.00;;;;;;6236115;28;80942;-71
2021/03/09 11:54:52;;;;;;;8.68;5.30;;;24.00;32.40;;;;;;6244360;28;80711;-71
2021/03/09 11:57:53;;;;;;;9.75;4.70;;;24.00;32.20;;;;;;6243694;28;81839;-69
2021/03/09 12:00:53;;;;;;;10.30;5.05;;;24.00;31.60;;;;;;6237107;28;80892;-70
2021/03/09 12:03:54;;;;;;;8.25;5.22;;;24.00;31.50;;;;;;6240005;28;82309;-72
2021/03/09 12:06:55;;;;;;;14.90;5.90;;;24.00;31.40;;;;;;6239208;28;82088;-72
2021/03/09 12:09:55;;;;;;;9.52;5.90;;;24.00;31.00;;;;;;6247485;28;81045;-69
2021/03/09 12:12:56;;;;;;;10.07;5.60;;;24.00;31.00;;;;;;6240056;27;81449;-71
2021/03/09 12:15:56;;;;;;;12.05;5.30;;;24.00;31.50;;;;;;6245564;28;80655;-67
2021/03/09 12:18:57;;;;;;;11.30;5.68;;;24.10;31.10;;;;;;6246000;28;80873;-66
2021/03/09 12:21:57;;;;;;;13.35;6.10;;;24.00;31.50;;;;;;6247841;28;81706;-68
2021/03/09 12:24:58;;;;;;;10.60;6.03;;;24.00;30.50;;;;;;6247708;28;81579;-71
2021/03/09 12:27:58;;;;;;;14.93;6.13;;;24.00;30.80;;;;;;6246997;28;81329;-69
2021/03/09 12:31:00;;;;;;;10.05;5.85;;;24.00;29.80;;;;;;6248336;28;84172;-69
2021/03/09 12:34:01;;;;;;;13.00;5.95;;;24.00;29.90;;;;;;6249250;28;81374;-67
2021/03/09 12:37:01;;;;;;;9.93;5.85;;;24.00;29.80;;;;;;6243566;28;81420;-69
2021/03/09 12:40:02;;;;;;;9.35;5.60;;;24.00;30.00;;;;;;6217660;28;81436;-68
2021/03/09 12:43:02;;;;;;;11.07;5.30;;;24.00;29.50;;;;;;6243581;27;81675;-69
2021/03/09 12:46:03;;;;;;;10.02;5.28;;;23.90;29.20;;;;;;6244450;27;80894;-71
2021/03/09 12:49:03;;;;;;;8.80;5.20;;;23.90;29.10;;;;;;6245701;27;80593;-69
2021/03/09 12:52:04;;;;;;;8.20;5.50;;;24.00;29.60;;;;;;6247305;27;80508;-68
2021/03/09 12:55:04;;;;;;;8.57;5.38;;;24.00;29.20;;;;;;6246485;27;80635;-69
2021/03/09 12:58:05;;;;;;;9.98;5.18;;;24.00;29.40;;;;;;6246516;27;80610;-69
2021/03/09 13:01:05;;;;;;;12.73;5.25;;;23.90;29.30;;;;;;6242780;27;81101;-68
2021/03/09 13:04:07;;;;;;;11.07;5.55;;;23.90;29.20;;;;;;6246514;27;81794;-68
2021/03/09 13:07:07;;;;;;;11.15;5.85;;;23.90;29.20;;;;;;6245564;27;80410;-68
2021/03/09 13:10:08;;;;;;;10.57;5.53;;;23.90;28.80;;;;;;6242408;28;80951;-67
2021/03/09 13:13:08;;;;;;;11.13;5.90;;;23.90;29.30;;;;;;6245028;27;81101;-68
2021/03/09 13:16:09;;;;;;;9.75;5.20;;;23.90;29.20;;;;;;6241199;27;81280;-67
2021/03/09 13:19:10;;;;;;;9.45;5.30;;;23.90;29.00;;;;;;6239991;28;80294;-68
2021/03/09 13:22:10;;;;;;;9.15;5.35;;;23.90;29.10;;;;;;6228233;28;81695;-68
2021/03/09 13:25:11;;;;;;;9.45;4.82;;;23.80;28.80;;;;;;6235250;28;80987;-67
2021/03/09 13:28:11;;;;;;;10.77;5.93;;;23.80;29.20;;;;;;6231942;28;81442;-67
2021/03/09 13:31:12;;;;;;;9.25;5.72;;;23.80;28.40;;;;;;6249354;27;80667;-67
2021/03/09 13:34:12;;;;;;;9.80;5.63;;;23.80;28.40;;;;;;6248581;28;80129;-67
2021/03/09 13:37:13;;;;;;;10.10;5.47;;;23.80;28.40;;;;;;6240006;27;80519;-67
2021/03/09 13:40:13;;;;;;;8.93;5.15;;;23.80;28.30;;;;;;6228512;28;80928;-67
2021/03/09 13:43:14;;;;;;;10.23;5.65;;;23.80;28.20;;;;;;6239603;28;80806;-66
2021/03/09 13:46:14;;;;;;;10.27;5.95;;;23.80;27.70;;;;;;6235961;28;80842;-66
2021/03/09 13:49:15;;;;;;;9.82;5.57;;;23.80;28.30;;;;;;6238702;28;80938;-69
2021/03/09 13:52:15;;;;;;;12.40;5.95;;;23.80;28.20;;;;;;6238050;28;80463;-67
2021/03/09 13:55:16;;;;;;;10.45;6.10;;;23.80;28.50;;;;;;6239870;27;81438;-70
2021/03/09 13:58:17;;;;;;;9.07;5.65;;;23.80;28.10;;;;;;6213311;28;81577;-69
2021/03/09 14:01:17;;;;;;;8.85;5.53;;;23.80;28.00;;;;;;6241747;28;80837;-69
2021/03/09 14:04:18;;;;;;;7.97;5.15;;;23.80;28.00;;;;;;6244489;28;80329;-67
2021/03/09 14:07:18;;;;;;;7.93;5.10;;;23.80;28.90;;;;;;6239096;28;81057;-69
2021/03/09 14:10:19;;;;;;;11.48;6.20;;;23.80;28.10;;;;;;6245983;27;80341;-68
2021/03/09 14:13:19;;;;;;;9.23;5.72;;;23.80;29.10;;;;;;6245341;27;81167;-69
2021/03/09 14:16:20;;;;;;;8.13;5.13;;;23.80;28.80;;;;;;6245543;28;81524;-71
2021/03/09 14:19:21;;;;;;;9.73;5.85;;;23.90;28.70;;;;;;6248284;28;80503;-69
2021/03/09 14:22:22;;;;;;;11.60;5.80;;;23.90;28.40;;;;;;6246677;28;80568;-69
2021/03/09 14:25:22;;;;;;;8.75;5.60;;;23.90;28.70;;;;;;6241466;28;80237;-69
2021/03/09 14:28:23;;;;;;;8.80;5.22;;;23.90;28.40;;;;;;6247861;28;80815;-71
2021/03/09 14:31:23;;;;;;;13.88;6.28;;;23.90;29.20;;;;;;6250739;28;80962;-69
2021/03/09 14:34:24;;;;;;;11.38;6.03;;;23.90;29.50;;;;;;6240125;28;80262;-71
2021/03/09 14:37:25;;;;;;;8.75;5.20;;;23.90;29.80;;;;;;6252770;28;81441;-69
2021/03/09 14:40:28;;;;;;;11.10;5.70;;;23.90;30.10;;;;;;6251081;28;80780;-69
2021/03/09 14:43:28;;;;;;;11.35;5.40;;;23.90;29.60;;;;;;6245529;27;80775;-71
2021/03/09 14:46:29;;;;;;;13.43;5.80;;;23.90;30.40;;;;;;6240421;28;81428;-71
2021/03/09 14:49:29;;;;;;;10.75;6.00;;;23.90;29.50;;;;;;6246182;28;81095;-69
2021/03/09 14:52:30;;;;;;;12.75;6.20;;;23.90;29.40;;;;;;6228364;28;83257;-68
2021/03/09 14:55:31;;;;;;;11.07;5.72;;;23.90;29.40;;;;;;6241199;28;81428;-69
2021/03/09 14:58:31;;;;;;;10.82;6.18;;;23.90;29.30;;;;;;6232060;28;81153;-67
2021/03/09 15:01:32;;;;;;;11.30;5.50;;;23.90;29.50;;;;;;6250724;27;81033;-71
2021/03/09 15:04:32;;;;;;;12.40;5.55;;;23.90;29.40;;;;;;6236905;28;81947;-69
2021/03/09 15:07:35;;;;;;;13.55;5.38;;;23.90;29.70;;;;;;6236447;28;81906;-67
2021/03/09 15:10:35;;;;;;;10.20;5.78;;;23.90;30.30;;;;;;6247464;28;80649;-69
2021/03/09 15:13:36;;;;;;;14.63;6.25;;;23.90;30.50;;;;;;6246060;27;81639;-62
2021/03/09 15:16:36;;;;;;;10.73;5.90;;;23.90;30.30;;;;;;6243889;27;81138;-67
2021/03/09 15:19:37;;;;;;;9.00;4.97;;;23.90;30.80;;;;;;6242087;28;81661;-68
2021/03/09 15:22:37;;;;;;;10.60;5.75;;;23.90;30.20;;;;;;6239134;28;81379;-69